createdAt,value
2019-06-01T00:02:11.574Z,90.30
2019-06-01T00:04:40.941Z,90.50
2019-06-01T00:07:08.335Z,90.70
2019-06-01T00:09:35.789Z,90.90
2019-06-01T00:12:03.270Z,90.80
2019-06-01T00:14:30.797Z,90.60
2019-06-01T00:16:58.112Z,90.60
2019-06-01T00:19:25.382Z,90.60
2019-06-01T00:21:54.257Z,90.40
2019-06-01T00:24:21.523Z,90.40
2019-06-01T00:26:49.904Z,90.50
2019-06-01T00:29:17.621Z,90.80
2019-06-01T00:31:45.339Z,90.70
2019-06-01T00:34:12.852Z,90.60
2019-06-01T00:36:41.539Z,90.50
2019-06-01T00:39:08.773Z,90.60
2019-06-01T00:41:36.041Z,90.70
2019-06-01T00:44:03.662Z,90.70
2019-06-01T00:46:31.082Z,90.70
2019-06-01T00:48:58.369Z,90.70
2019-06-01T00:51:25.835Z,90.70
2019-06-01T00:53:55.277Z,90.80
2019-06-01T00:56:22.624Z,90.80
2019-06-01T00:58:49.881Z,90.70
2019-06-01T01:01:17.328Z,90.50
2019-06-01T01:03:45.994Z,90.60
2019-06-01T01:06:13.558Z,90.60
2019-06-01T01:08:40.763Z,90.80
2019-06-01T01:11:08.102Z,90.90
2019-06-01T01:13:35.406Z,91.00
2019-06-01T01:16:02.852Z,91.10
2019-06-01T01:18:30.174Z,91.20
2019-06-01T01:20:57.692Z,91.40
2019-06-01T01:23:25.137Z,91.30
2019-06-01T01:25:52.641Z,91.20
2019-06-01T01:28:20.187Z,91.20
2019-06-01T01:31:03.031Z,91.10
2019-06-01T01:33:16.965Z,91.10
2019-06-01T01:35:45.331Z,90.90
2019-06-01T01:38:12.742Z,90.90
2019-06-01T01:40:40.079Z,91.00
2019-06-01T01:43:07.308Z,91.10
2019-06-01T01:45:34.776Z,91.10
2019-06-01T01:48:02.129Z,91.30
2019-06-01T01:50:29.812Z,91.50
2019-06-01T01:52:59.005Z,91.40
2019-06-01T01:55:26.790Z,91.40
2019-06-01T01:57:55.361Z,91.40
2019-06-01T02:00:36.100Z,91.70
2019-06-01T02:03:05.308Z,91.60
2019-06-01T02:05:33.141Z,91.70
2019-06-01T02:08:01.983Z,91.70
2019-06-01T02:10:29.755Z,91.70
2019-06-01T02:12:57.569Z,91.70
2019-06-01T02:15:25.407Z,91.80
2019-06-01T02:17:53.931Z,91.90
2019-06-01T02:20:21.489Z,92.10
2019-06-01T02:22:49.192Z,92.10
2019-06-01T02:25:17.075Z,92.10
2019-06-01T02:27:44.775Z,92.10
2019-06-01T02:30:14.835Z,92.30
2019-06-01T02:32:42.532Z,92.50
2019-06-01T02:35:11.374Z,92.60
2019-06-01T02:37:39.188Z,92.60
2019-06-01T02:40:07.616Z,92.50
2019-06-01T02:42:35.359Z,92.40
2019-06-01T02:45:04.052Z,92.60
2019-06-01T02:47:33.165Z,92.40
2019-06-01T02:50:04.266Z,92.40
2019-06-01T02:52:31.705Z,92.20
2019-06-01T02:54:59.646Z,92.00
2019-06-01T02:57:27.635Z,91.90
2019-06-01T02:59:56.243Z,91.80
2019-06-01T03:02:24.062Z,91.80
2019-06-01T03:04:51.778Z,91.80
2019-06-01T03:07:20.073Z,91.80
2019-06-01T03:09:48.070Z,91.80
2019-06-01T03:12:18.442Z,92.00
2019-06-01T03:14:48.590Z,92.20
2019-06-01T03:17:18.965Z,92.20
2019-06-01T03:19:49.403Z,92.20
2019-06-01T03:22:20.788Z,92.30
2019-06-01T03:24:51.861Z,92.20
2019-06-01T03:27:21.695Z,92.40
2019-06-01T03:29:54.907Z,92.40
2019-06-01T03:32:35.168Z,92.60
2019-06-01T03:34:52.208Z,92.40
2019-06-01T03:37:19.877Z,92.10
2019-06-01T03:39:48.186Z,92.20
2019-06-01T03:42:16.353Z,92.30
2019-06-01T03:44:44.220Z,92.30
2019-06-01T03:47:12.010Z,92.50
2019-06-01T03:49:46.077Z,92.40
2019-06-01T03:52:14.261Z,92.60
2019-06-01T03:54:42.955Z,92.40
2019-06-01T03:57:11.261Z,92.60
2019-06-01T03:59:39.163Z,92.60
2019-06-01T04:02:07.110Z,92.80
2019-06-01T04:04:34.913Z,92.80
2019-06-01T04:07:03.433Z,92.90
2019-06-01T04:09:31.175Z,93.00
2019-06-01T04:11:58.749Z,93.00
2019-06-01T04:14:26.384Z,93.20
2019-06-01T04:16:54.140Z,93.00
2019-06-01T04:19:21.810Z,93.30
2019-06-01T04:21:49.444Z,93.30
2019-06-01T04:24:17.048Z,93.10
2019-06-01T04:26:44.730Z,92.80
2019-06-01T04:29:12.666Z,92.80
2019-06-01T04:31:40.291Z,92.70
2019-06-01T04:34:08.811Z,92.90
2019-06-01T04:36:36.516Z,93.00
2019-06-01T04:39:07.215Z,93.40
2019-06-01T04:41:35.019Z,93.70
2019-06-01T04:44:03.754Z,94.10
2019-06-01T04:46:31.466Z,94.30
2019-06-01T04:49:00.266Z,94.30
2019-06-01T04:51:27.912Z,94.30
2019-06-01T04:53:55.627Z,94.10
2019-06-01T04:56:23.207Z,93.90
2019-06-01T04:58:50.920Z,93.80
2019-06-01T05:01:18.643Z,93.60
2019-06-01T05:03:46.250Z,93.50
2019-06-01T05:06:13.865Z,93.40
2019-06-01T05:08:41.530Z,93.40
2019-06-01T05:11:10.255Z,93.10
2019-06-01T05:13:38.559Z,93.10
2019-06-01T05:16:07.832Z,92.80
2019-06-01T05:18:35.585Z,92.40
2019-06-01T05:21:03.379Z,92.50
2019-06-01T05:23:31.286Z,92.50
2019-06-01T05:25:59.101Z,92.30
2019-06-01T05:28:26.785Z,92.40
2019-06-01T05:30:54.568Z,92.10
2019-06-01T05:33:36.556Z,92.40
2019-06-01T05:35:51.824Z,92.20
2019-06-01T05:38:19.666Z,91.80
2019-06-01T05:40:47.378Z,91.40
2019-06-01T05:43:18.916Z,91.30
2019-06-01T05:45:46.146Z,91.10
2019-06-01T05:48:20.848Z,91.00
2019-06-01T05:50:43.530Z,90.60
2019-06-01T05:53:11.127Z,90.60
2019-06-01T05:55:39.037Z,90.50
2019-06-01T05:58:07.150Z,90.10
2019-06-01T06:00:41.759Z,90.00
2019-06-01T06:03:14.408Z,89.40
2019-06-01T06:05:38.892Z,89.40
2019-06-01T06:08:06.580Z,89.40
2019-06-01T06:10:34.512Z,88.90
2019-06-01T06:13:02.442Z,88.50
2019-06-01T06:15:29.989Z,88.70
2019-06-01T06:17:57.567Z,88.30
2019-06-01T06:20:25.626Z,87.70
2019-06-01T06:22:53.369Z,87.00
2019-06-01T06:25:21.069Z,86.80
2019-06-01T06:27:48.821Z,86.90
2019-06-01T06:30:16.987Z,86.70
2019-06-01T06:32:44.815Z,86.00
2019-06-01T06:35:13.274Z,85.30
2019-06-01T06:37:42.420Z,85.30
2019-06-01T06:40:11.463Z,85.50
2019-06-01T06:42:39.239Z,85.10
2019-06-01T06:45:07.177Z,84.60
2019-06-01T06:47:35.859Z,84.50
2019-06-01T06:50:03.751Z,83.70
2019-06-01T06:52:31.490Z,83.80
2019-06-01T06:54:59.387Z,82.80
2019-06-01T06:57:27.061Z,82.50
2019-06-01T06:59:54.742Z,81.90
2019-06-01T07:02:22.896Z,82.00
2019-06-01T07:04:50.843Z,81.60
2019-06-01T07:07:19.566Z,81.10
2019-06-01T07:09:47.372Z,80.60
2019-06-01T07:12:15.153Z,80.50
2019-06-01T07:14:42.813Z,82.50
2019-06-01T07:17:10.594Z,83.30
2019-06-01T07:19:38.228Z,81.90
2019-06-01T07:22:06.056Z,80.90
2019-06-01T07:24:33.744Z,80.80
2019-06-01T07:27:01.477Z,80.40
2019-06-01T07:29:29.092Z,80.10
2019-06-01T07:31:57.864Z,79.60
2019-06-01T07:34:36.091Z,79.00
2019-06-01T07:36:55.274Z,77.70
2019-06-01T07:39:22.982Z,77.00
2019-06-01T07:41:50.649Z,77.60
2019-06-01T07:44:18.401Z,77.10
2019-06-01T07:46:46.174Z,76.30
2019-06-01T07:49:13.814Z,76.30
2019-06-01T07:51:41.487Z,75.70
2019-06-01T07:54:09.131Z,75.70
2019-06-01T07:56:36.863Z,74.90
2019-06-01T07:59:04.676Z,74.10
2019-06-01T08:01:32.900Z,73.50
2019-06-01T08:04:00.763Z,73.10
2019-06-01T08:06:30.251Z,73.70
2019-06-01T08:08:58.094Z,74.00
2019-06-01T08:11:29.526Z,72.60
2019-06-01T08:13:55.185Z,71.90
2019-06-01T08:16:23.679Z,72.40
2019-06-01T08:18:53.226Z,71.50
2019-06-01T08:21:21.826Z,71.00
2019-06-01T08:23:49.531Z,70.30
2019-06-01T08:26:19.970Z,70.90
2019-06-01T08:28:46.664Z,71.00
2019-06-01T08:31:14.427Z,69.80
2019-06-01T08:33:42.116Z,69.70
2019-06-01T08:36:09.778Z,70.00
2019-06-01T08:38:37.466Z,69.20
2019-06-01T08:41:05.102Z,69.30
2019-06-01T08:43:33.908Z,69.90
2019-06-01T08:46:01.742Z,68.60
2019-06-01T08:48:29.908Z,68.20
2019-06-01T08:50:57.534Z,69.10
2019-06-01T08:53:25.797Z,68.20
2019-06-01T08:55:53.415Z,68.60
2019-06-01T08:58:21.226Z,69.30
2019-06-01T09:00:48.953Z,68.50
2019-06-01T09:03:16.876Z,67.40
2019-06-01T09:05:44.353Z,67.00
2019-06-01T09:08:11.970Z,67.40
2019-06-01T09:10:39.542Z,68.40
2019-06-01T09:13:07.290Z,66.90
2019-06-01T09:15:35.559Z,67.20
2019-06-01T09:18:03.386Z,66.90
2019-06-01T09:20:35.306Z,67.20
2019-06-01T09:23:00.749Z,67.30
2019-06-01T09:25:29.553Z,68.70
2019-06-01T09:27:57.335Z,68.90
2019-06-01T09:30:25.900Z,68.70
2019-06-01T09:32:53.818Z,67.30
2019-06-01T09:35:21.648Z,67.30
2019-06-01T09:37:49.388Z,66.20
2019-06-01T09:40:17.178Z,65.90
2019-06-01T09:42:44.931Z,66.50
2019-06-01T09:45:12.823Z,65.90
2019-06-01T09:47:40.535Z,66.00
2019-06-01T09:50:08.868Z,64.80
2019-06-01T09:52:37.707Z,65.70
2019-06-01T09:55:06.288Z,65.70
2019-06-01T09:57:34.213Z,65.40
2019-06-01T10:00:02.093Z,64.80
2019-06-01T10:02:32.088Z,64.90
2019-06-01T10:04:59.987Z,65.10
2019-06-01T10:07:29.179Z,64.20
2019-06-01T10:09:56.845Z,63.60
2019-06-01T10:12:24.741Z,64.00
2019-06-01T10:14:52.809Z,63.80
2019-06-01T10:17:20.435Z,64.00
2019-06-01T10:19:48.114Z,65.20
2019-06-01T10:22:15.915Z,64.00
2019-06-01T10:24:43.558Z,64.70
2019-06-01T10:27:11.184Z,64.50
2019-06-01T10:29:39.900Z,63.10
2019-06-01T10:32:07.887Z,64.70
2019-06-01T10:34:37.750Z,64.50
2019-06-01T10:37:05.486Z,64.10
2019-06-01T10:39:33.138Z,63.70
2019-06-01T10:42:01.022Z,64.60
2019-06-01T10:44:28.785Z,65.50
2019-06-01T10:46:56.661Z,63.50
2019-06-01T10:49:24.464Z,63.20
2019-06-01T10:51:52.205Z,64.60
2019-06-01T10:54:19.816Z,63.60
2019-06-01T10:56:47.561Z,63.40
2019-06-01T10:59:15.327Z,62.70
2019-06-01T11:01:43.128Z,62.90
2019-06-01T11:04:13.943Z,61.60
2019-06-01T11:06:46.503Z,63.00
2019-06-01T11:09:11.025Z,62.60
2019-06-01T11:11:39.080Z,61.60
2019-06-01T11:14:06.763Z,61.60
2019-06-01T11:16:35.172Z,60.70
2019-06-01T11:19:02.847Z,61.40
2019-06-01T11:21:30.448Z,60.50
2019-06-01T11:23:58.007Z,61.80
2019-06-01T11:26:25.688Z,60.60
2019-06-01T11:28:53.424Z,60.40
2019-06-01T11:31:21.471Z,60.60
2019-06-01T11:33:49.261Z,61.80
2019-06-01T11:36:17.035Z,63.30
2019-06-01T11:38:45.152Z,61.50
2019-06-01T11:41:12.940Z,61.60
2019-06-01T11:43:40.715Z,61.80
2019-06-01T11:46:08.379Z,60.50
2019-06-01T11:48:37.161Z,61.10
2019-06-01T11:51:05.031Z,61.90
2019-06-01T11:53:32.708Z,61.40
2019-06-01T11:56:00.600Z,60.60
2019-06-01T11:58:28.450Z,59.90
2019-06-01T12:00:56.138Z,60.80
2019-06-01T12:03:24.056Z,60.00
2019-06-01T12:05:51.763Z,59.80
2019-06-01T12:08:19.406Z,59.30
2019-06-01T12:10:47.764Z,59.50
2019-06-01T12:13:15.544Z,58.60
2019-06-01T12:15:44.185Z,58.40
2019-06-01T12:18:12.129Z,58.10
2019-06-01T12:20:40.841Z,58.00
2019-06-01T12:23:08.451Z,58.20
2019-06-01T12:25:35.963Z,58.80
2019-06-01T12:28:03.666Z,59.00
2019-06-01T12:30:31.380Z,58.00
2019-06-01T12:32:59.003Z,57.70
2019-06-01T12:35:27.074Z,57.70
2019-06-01T12:38:05.697Z,58.00
2019-06-01T12:40:24.811Z,57.50
2019-06-01T12:42:52.739Z,58.70
2019-06-01T12:45:23.060Z,58.00
2019-06-01T12:47:57.532Z,57.80
2019-06-01T12:50:19.806Z,58.80
2019-06-01T12:52:48.599Z,58.40
2019-06-01T12:55:16.787Z,57.30
2019-06-01T12:57:44.920Z,58.20
2019-06-01T13:00:15.501Z,58.60
2019-06-01T13:02:46.424Z,56.40
2019-06-01T13:05:13.354Z,56.60
2019-06-01T13:07:53.017Z,56.70
2019-06-01T13:10:10.719Z,58.90
2019-06-01T13:12:38.242Z,57.00
2019-06-01T13:15:06.201Z,55.20
2019-06-01T13:17:34.067Z,56.40
2019-06-01T13:20:01.811Z,56.60
2019-06-01T13:22:30.054Z,56.30
2019-06-01T13:24:57.636Z,55.70
2019-06-01T13:27:25.719Z,54.90
2019-06-01T13:29:53.413Z,54.90
2019-06-01T13:32:20.989Z,56.20
2019-06-01T13:34:49.202Z,54.60
2019-06-01T13:37:17.393Z,55.50
2019-06-01T13:39:46.423Z,54.60
2019-06-01T13:42:14.674Z,55.70
2019-06-01T13:44:43.374Z,54.40
2019-06-01T13:47:11.160Z,55.40
2019-06-01T13:49:38.584Z,54.80
2019-06-01T13:52:06.401Z,54.40
2019-06-01T13:54:34.044Z,55.10
2019-06-01T13:57:01.648Z,55.50
2019-06-01T13:59:29.368Z,56.00
2019-06-01T14:01:57.209Z,54.30
2019-06-01T14:04:24.742Z,54.50
2019-06-01T14:06:53.154Z,53.90
2019-06-01T14:09:22.067Z,54.00
2019-06-01T14:11:51.205Z,54.00
2019-06-01T14:14:19.201Z,53.10
2019-06-01T14:16:47.490Z,52.90
2019-06-01T14:19:15.333Z,53.20
2019-06-01T14:21:43.148Z,54.20
2019-06-01T14:24:11.145Z,55.30
2019-06-01T14:26:38.812Z,53.30
2019-06-01T14:29:06.678Z,52.50
2019-06-01T14:31:34.429Z,52.20
2019-06-01T14:34:01.934Z,52.30
2019-06-01T14:36:29.767Z,53.00
2019-06-01T14:38:58.863Z,52.20
2019-06-01T14:41:26.547Z,52.50
2019-06-01T14:43:56.336Z,51.70
2019-06-01T14:46:24.214Z,51.70
2019-06-01T14:48:52.008Z,52.40
2019-06-01T14:51:19.704Z,52.30
2019-06-01T14:53:47.556Z,53.40
2019-06-01T14:56:15.181Z,52.50
2019-06-01T14:58:42.969Z,51.80
2019-06-01T15:01:10.744Z,51.50
2019-06-01T15:03:38.377Z,51.20
2019-06-01T15:06:05.956Z,51.30
2019-06-01T15:08:34.697Z,50.40
2019-06-01T15:11:02.386Z,51.10
2019-06-01T15:13:29.955Z,50.80
2019-06-01T15:15:58.671Z,51.20
2019-06-01T15:18:26.619Z,50.80
2019-06-01T15:20:54.332Z,51.30
2019-06-01T15:23:23.136Z,50.70
2019-06-01T15:25:52.245Z,50.80
2019-06-01T15:28:20.126Z,50.10
2019-06-01T15:30:47.852Z,49.10
2019-06-01T15:33:15.514Z,49.00
2019-06-01T15:35:43.230Z,49.10
2019-06-01T15:38:11.089Z,47.80
2019-06-01T15:40:39.100Z,47.10
2019-06-01T15:43:06.841Z,46.90
2019-06-01T15:45:34.869Z,46.80
2019-06-01T15:48:02.834Z,46.20
2019-06-01T15:50:30.619Z,46.30
2019-06-01T15:52:59.351Z,45.90
2019-06-01T15:55:27.468Z,45.80
2019-06-01T15:57:55.092Z,45.40
2019-06-01T16:00:22.983Z,43.70
2019-06-01T16:02:50.700Z,43.60
2019-06-01T16:05:18.377Z,44.10
2019-06-01T16:07:46.067Z,43.40
2019-06-01T16:10:13.891Z,43.00
2019-06-01T16:12:41.833Z,43.00
2019-06-01T16:15:09.902Z,42.80
2019-06-01T16:17:37.775Z,42.20
2019-06-01T16:20:06.402Z,42.10
2019-06-01T16:22:35.024Z,41.90
2019-06-01T16:25:02.906Z,41.70
2019-06-01T16:27:30.964Z,41.80
2019-06-01T16:30:01.530Z,41.80
2019-06-01T16:32:29.730Z,42.00
2019-06-01T16:34:58.529Z,43.00
2019-06-01T16:37:26.549Z,43.70
2019-06-01T16:39:59.772Z,43.90
2019-06-01T16:42:23.543Z,44.60
2019-06-01T16:44:51.342Z,45.00
2019-06-01T16:47:20.425Z,44.80
2019-06-01T16:49:47.983Z,45.30
2019-06-01T16:52:15.632Z,46.50
2019-06-01T16:54:43.512Z,46.40
2019-06-01T16:57:11.334Z,47.00
2019-06-01T16:59:38.959Z,46.70
2019-06-01T17:02:07.911Z,48.10
2019-06-01T17:04:36.552Z,48.10
2019-06-01T17:07:05.551Z,49.30
2019-06-01T17:09:34.009Z,49.60
2019-06-01T17:12:03.047Z,50.60
2019-06-01T17:14:30.910Z,51.10
2019-06-01T17:17:05.231Z,50.80
2019-06-01T17:19:33.069Z,51.30
2019-06-01T17:22:01.442Z,51.20
2019-06-01T17:24:29.883Z,52.00
2019-06-01T17:26:57.882Z,52.40
2019-06-01T17:29:26.176Z,52.60
2019-06-01T17:31:56.382Z,52.80
2019-06-01T17:34:24.215Z,52.70
2019-06-01T17:36:51.959Z,53.10
2019-06-01T17:39:20.584Z,53.30
2019-06-01T17:41:48.560Z,53.10
2019-06-01T17:44:16.507Z,53.80
2019-06-01T17:46:53.401Z,53.50
2019-06-01T17:49:13.936Z,53.20
2019-06-01T17:51:41.490Z,53.50
2019-06-01T17:54:09.868Z,53.50
2019-06-01T17:56:37.533Z,53.70
2019-06-01T17:59:05.386Z,54.30
2019-06-01T18:01:33.189Z,53.80
2019-06-01T18:04:01.729Z,54.50
2019-06-01T18:06:30.053Z,54.70
2019-06-01T18:08:57.779Z,55.30
2019-06-01T18:11:25.860Z,55.60
2019-06-01T18:13:54.133Z,54.80
2019-06-01T18:16:22.048Z,55.10
2019-06-01T18:18:49.901Z,55.30
2019-06-01T18:21:17.565Z,55.30
2019-06-01T18:23:45.368Z,55.40
2019-06-01T18:26:13.207Z,56.20
2019-06-01T18:28:41.226Z,56.50
2019-06-01T18:31:08.974Z,56.20
2019-06-01T18:33:36.708Z,56.10
2019-06-01T18:36:05.517Z,56.80
2019-06-01T18:38:33.162Z,56.50
2019-06-01T18:41:10.685Z,57.30
2019-06-01T18:43:31.404Z,57.00
2019-06-01T18:45:58.987Z,57.90
2019-06-01T18:48:26.795Z,58.40
2019-06-01T18:50:54.719Z,59.30
2019-06-01T18:53:22.793Z,60.60
2019-06-01T18:55:50.660Z,62.10
2019-06-01T18:58:18.400Z,63.80
2019-06-01T19:00:46.163Z,64.30
2019-06-01T19:03:15.548Z,64.30
2019-06-01T19:05:43.503Z,64.80
2019-06-01T19:08:11.660Z,65.30
2019-06-01T19:10:39.499Z,65.70
2019-06-01T19:13:07.667Z,66.10
2019-06-01T19:15:35.364Z,66.60
2019-06-01T19:18:03.389Z,66.60
2019-06-01T19:20:33.260Z,66.80
2019-06-01T19:23:00.741Z,67.20
2019-06-01T19:25:28.408Z,67.40
2019-06-01T19:27:56.312Z,67.80
2019-06-01T19:30:40.223Z,68.20
2019-06-01T19:33:10.602Z,68.70
2019-06-01T19:35:38.425Z,69.00
2019-06-01T19:38:07.021Z,69.40
2019-06-01T19:40:39.307Z,69.60
2019-06-01T19:43:09.378Z,70.10
2019-06-01T19:45:37.344Z,69.50
2019-06-01T19:48:08.406Z,70.10
2019-06-01T19:50:36.078Z,70.90
2019-06-01T19:53:04.054Z,71.30
2019-06-01T19:55:31.667Z,71.50
2019-06-01T19:57:59.484Z,71.70
2019-06-01T20:00:27.146Z,72.10
2019-06-01T20:02:54.765Z,72.30
2019-06-01T20:05:23.406Z,72.20
2019-06-01T20:07:51.144Z,72.40
2019-06-01T20:10:18.894Z,71.50
2019-06-01T20:12:46.731Z,71.30
2019-06-01T20:15:15.501Z,71.70
2019-06-01T20:17:43.325Z,71.90
2019-06-01T20:20:12.644Z,72.10
2019-06-01T20:22:40.532Z,71.70
2019-06-01T20:25:08.038Z,71.80
2019-06-01T20:27:36.822Z,72.30
2019-06-01T20:30:05.572Z,72.70
2019-06-01T20:32:35.238Z,72.90
2019-06-01T20:35:03.897Z,73.30
2019-06-01T20:37:31.856Z,73.60
2019-06-01T20:39:59.622Z,73.70
2019-06-01T20:42:32.500Z,73.90
2019-06-01T20:44:57.206Z,74.40
2019-06-01T20:47:26.446Z,74.40
2019-06-01T20:49:54.146Z,74.50
2019-06-01T20:52:23.173Z,75.00
2019-06-01T20:54:51.047Z,75.10
2019-06-01T20:57:19.590Z,75.30
2019-06-01T20:59:47.399Z,75.50
2019-06-01T21:02:15.711Z,75.80
2019-06-01T21:04:43.648Z,75.90
2019-06-01T21:07:11.616Z,75.80
2019-06-01T21:09:39.311Z,76.50
2019-06-01T21:12:08.993Z,76.60
2019-06-01T21:14:37.067Z,77.20
2019-06-01T21:17:05.065Z,77.40
2019-06-01T21:19:34.032Z,77.60
2019-06-01T21:22:01.787Z,78.40
2019-06-01T21:24:29.495Z,78.40
2019-06-01T21:26:57.146Z,78.70
2019-06-01T21:29:25.191Z,78.90
2019-06-01T21:31:52.938Z,79.00
2019-06-01T21:34:22.230Z,79.00
2019-06-01T21:36:52.161Z,78.90
2019-06-01T21:39:25.502Z,78.70
2019-06-01T21:41:59.916Z,78.80
2019-06-01T21:44:32.646Z,78.90
2019-06-01T21:47:00.301Z,79.00
2019-06-01T21:49:30.761Z,79.00
2019-06-01T21:52:03.136Z,79.10
2019-06-01T21:54:38.717Z,79.50
2019-06-01T21:57:12.153Z,79.80
2019-06-01T21:59:40.063Z,80.00
2019-06-01T22:02:07.736Z,80.40
2019-06-01T22:04:45.348Z,80.60
2019-06-01T22:07:15.463Z,81.10
2019-06-01T22:09:43.131Z,81.20
2019-06-01T22:12:10.989Z,81.20
2019-06-01T22:14:38.658Z,81.40
2019-06-01T22:17:06.650Z,81.40
2019-06-01T22:19:34.269Z,81.60
2019-06-01T22:22:02.086Z,81.80
2019-06-01T22:24:29.972Z,81.90
2019-06-01T22:26:57.656Z,82.20
2019-06-01T22:29:26.457Z,82.30
2019-06-01T22:31:54.271Z,82.40
2019-06-01T22:34:22.636Z,82.60
2019-06-01T22:36:50.881Z,82.80
2019-06-01T22:39:19.376Z,82.80
2019-06-01T22:41:49.699Z,83.00
2019-06-01T22:44:17.692Z,82.70
2019-06-01T22:46:45.499Z,82.80
2019-06-01T22:49:13.170Z,83.00
2019-06-01T22:51:40.794Z,83.20
2019-06-01T22:54:08.623Z,83.70
2019-06-01T22:56:36.110Z,83.60
2019-06-01T22:59:03.684Z,83.60
2019-06-01T23:01:31.211Z,83.90
2019-06-01T23:03:58.727Z,84.10
2019-06-01T23:06:27.055Z,84.30
2019-06-01T23:08:54.575Z,84.40
2019-06-01T23:11:23.227Z,84.70
2019-06-01T23:13:53.660Z,84.90
2019-06-01T23:16:21.563Z,85.00
2019-06-01T23:18:49.472Z,85.00
2019-06-01T23:21:16.980Z,85.10
2019-06-01T23:23:44.470Z,85.50
2019-06-01T23:26:12.095Z,85.50
2019-06-01T23:28:39.566Z,85.70
2019-06-01T23:31:07.112Z,85.80
2019-06-01T23:33:34.625Z,85.70
2019-06-01T23:36:02.010Z,85.80
2019-06-01T23:38:30.722Z,85.80
2019-06-01T23:40:58.390Z,86.00
2019-06-01T23:43:26.962Z,86.00
2019-06-01T23:45:54.635Z,86.20
2019-06-01T23:48:23.135Z,86.10
2019-06-01T23:50:51.153Z,86.20
2019-06-01T23:53:18.969Z,86.40
2019-06-01T23:55:46.557Z,86.40
2019-06-01T23:58:14.158Z,86.60
